In Rescue
 
Open Full Screen Window  High Contrast Mode
Wind Gusting 00 knots
08
May 25, 2022 8:02 PM CDT
Present Weather: Mist
Weather Information
Wind Direction
  010 °
Wind Speed
  08 kt (9 mph)
Wind Gust
  00 kt (0 mph)
Altimeter
29.87 in
Visibility
5 SM
Temperature
09° C
48° F
Dewpoint
09° C
48° F
Humidity
100%
1hr Rain Fall
00.00 in.
24hr Rain Fall
00.68 in.
Sky Condition
Overcast @ 400 ft
LIFR

METAR K21D 260102Z AUTO 01008KT 5SM BR OVC004 09/09 A2987 RMK AO2

FAA Disclaimer: The data displayed is for advisory purposes only and is not to be used for flight planning or operations.